Time,TemperatureF,DewpointF,PressureIn,WindDirection,WindDirectionDegrees,WindSpeedMPH,WindSpeedGustMPH,Humidity,HourlyPrecipIn,Conditions,Clouds,dailyrainin,SoftwareType,DateUTC
2017-03-25 00:03:00,52.3,22.6,28.53,WSW,253,0.0,0.0,31,0.00,,---,0.00,VWS V15.00,2017-03-25 07:03:00,
2017-03-25 00:08:00,52.3,22.6,28.53,SW,229,0.0,0.0,31,0.00,,---,0.00,VWS V15.00,2017-03-25 07:08:00,
2017-03-25 00:13:00,52.5,23.5,28.53,SW,216,0.0,0.0,32,0.00,,---,0.00,VWS V15.00,2017-03-25 07:13:00,
2017-03-25 00:18:00,52.5,23.5,28.50,SW,216,0.0,0.0,32,0.00,,---,0.00,VWS V15.00,2017-03-25 07:18:00,
2017-03-25 00:23:00,52.3,24.1,28.50,SW,216,0.0,0.0,33,0.00,,---,0.00,VWS V15.00,2017-03-25 07:23:00,
2017-03-25 00:28:00,52.3,24.1,28.50,SW,216,0.0,0.0,33,0.00,,---,0.00,VWS V15.00,2017-03-25 07:28:00,
2017-03-25 00:33:00,52.3,24.8,28.53,SW,216,0.0,0.0,34,0.00,,---,0.00,VWS V15.00,2017-03-25 07:33:00,
2017-03-25 00:38:00,52.3,24.8,28.53,SW,216,0.0,0.0,34,0.00,,---,0.00,VWS V15.00,2017-03-25 07:38:00,
2017-03-25 00:43:00,52.2,25.4,28.53,SW,216,0.0,0.0,35,0.00,,---,0.00,VWS V15.00,2017-03-25 07:43:00,
2017-03-25 00:49:00,52.2,26.0,28.53,SW,216,0.0,0.0,36,0.00,,---,0.00,VWS V15.00,2017-03-25 07:49:00,
2017-03-25 00:54:00,52.0,25.9,28.53,SW,216,0.0,0.0,36,0.00,,---,0.00,VWS V15.00,2017-03-25 07:54:00,
2017-03-25 00:59:00,52.0,25.9,28.53,SW,216,0.0,0.0,36,0.00,,---,0.00,VWS V15.00,2017-03-25 07:59:00,
2017-03-25 01:04:00,52.0,25.9,28.50,SW,216,0.0,0.0,36,0.00,,---,0.00,VWS V15.00,2017-03-25 08:04:00,
2017-03-25 01:09:00,52.0,25.9,28.50,NNW,344,0.0,0.0,36,0.00,,---,0.00,VWS V15.00,2017-03-25 08:09:00,
2017-03-25 01:14:00,52.0,25.9,28.50,WNW,286,0.0,0.0,36,0.00,,---,0.00,VWS V15.00,2017-03-25 08:14:00,
2017-03-25 01:19:00,52.2,26.0,28.53,West,274,0.0,0.0,36,0.00,,---,0.00,VWS V15.00,2017-03-25 08:19:00,
2017-03-25 01:24:00,52.3,26.2,28.53,WNW,286,0.0,0.0,36,0.00,,---,0.00,VWS V15.00,2017-03-25 08:24:00,
2017-03-25 01:29:00,52.5,26.4,28.53,NW,308,0.0,0.0,36,0.00,,---,0.00,VWS V15.00,2017-03-25 08:29:00,
2017-03-25 01:34:00,52.5,26.4,28.50,NW,308,0.0,0.0,36,0.00,,---,0.00,VWS V15.00,2017-03-25 08:34:00,
2017-03-25 01:39:00,52.5,26.4,28.50,WSW,249,0.0,0.0,36,0.00,,---,0.00,VWS V15.00,2017-03-25 08:39:00,
2017-03-25 01:44:00,52.5,26.4,28.50,WSW,245,2.2,2.2,36,0.00,,---,0.00,VWS V15.00,2017-03-25 08:44:00,
2017-03-25 01:49:00,52.5,26.4,28.53,West,271,0.0,0.0,36,0.00,,---,0.00,VWS V15.00,2017-03-25 08:49:00,
2017-03-25 01:54:00,52.5,26.4,28.53,West,259,3.1,3.1,36,0.00,,---,0.00,VWS V15.00,2017-03-25 08:54:00,
2017-03-25 01:59:00,52.5,27.0,28.53,SW,218,0.0,0.0,37,0.00,,---,0.00,VWS V15.00,2017-03-25 08:59:00,
2017-03-25 02:04:00,52.3,26.9,28.50,NE,41,0.0,0.0,37,0.00,,---,0.00,VWS V15.00,2017-03-25 09:04:00,
2017-03-25 02:09:00,52.3,26.9,28.50,NNE,31,0.0,0.0,37,0.00,,---,0.00,VWS V15.00,2017-03-25 09:09:00,
2017-03-25 02:14:00,52.3,26.9,28.50,NNE,31,0.0,0.0,37,0.00,,---,0.00,VWS V15.00,2017-03-25 09:14:00,
2017-03-25 02:19:00,52.3,26.9,28.50,NNE,18,0.0,0.0,37,0.00,,---,0.00,VWS V15.00,2017-03-25 09:19:00,
2017-03-25 02:24:00,52.3,26.9,28.50,NNE,13,0.0,2.2,37,0.00,,---,0.00,VWS V15.00,2017-03-25 09:24:00,
2017-03-25 02:29:00,52.5,27.0,28.50,NE,54,0.0,2.2,37,0.00,,---,0.00,VWS V15.00,2017-03-25 09:29:00,
2017-03-25 02:34:00,52.5,27.0,28.50,North,353,0.0,2.7,37,0.00,,---,0.00,VWS V15.00,2017-03-25 09:34:00,
2017-03-25 02:39:00,52.7,27.2,28.50,NW,326,0.0,0.0,37,0.00,,---,0.00,VWS V15.00,2017-03-25 09:39:00,
2017-03-25 02:44:00,52.7,27.2,28.50,North,357,0.0,0.0,37,0.00,,---,0.00,VWS V15.00,2017-03-25 09:44:00,
2017-03-25 02:49:00,52.7,27.2,28.50,NE,38,0.0,0.0,37,0.00,,---,0.00,VWS V15.00,2017-03-25 09:49:00,
2017-03-25 02:55:00,52.7,27.2,28.50,ENE,77,0.0,0.0,37,0.00,,---,0.00,VWS V15.00,2017-03-25 09:55:00,
2017-03-25 03:00:00,52.9,27.3,28.50,ENE,64,0.0,0.0,37,0.00,,---,0.00,VWS V15.00,2017-03-25 10:00:00,
2017-03-25 03:05:00,52.9,27.3,28.47,NE,50,0.0,0.0,37,0.00,,---,0.00,VWS V15.00,2017-03-25 10:05:00,
2017-03-25 03:10:00,52.9,27.3,28.47,NE,50,0.0,0.0,37,0.00,,---,0.00,VWS V15.00,2017-03-25 10:10:00,
2017-03-25 03:15:00,52.9,27.3,28.47,ENE,61,0.0,0.0,37,0.00,,---,0.00,VWS V15.00,2017-03-25 10:15:00,
2017-03-25 03:20:00,52.9,27.3,28.44,ENE,58,2.7,2.7,37,0.00,,---,0.00,VWS V15.00,2017-03-25 10:20:00,
2017-03-25 03:25:00,52.7,27.2,28.44,East,101,0.0,0.0,37,0.00,,---,0.00,VWS V15.00,2017-03-25 10:25:00,
2017-03-25 03:30:00,52.3,26.9,28.44,SE,124,0.0,0.0,37,0.00,,---,0.00,VWS V15.00,2017-03-25 10:30:00,
2017-03-25 03:35:00,52.2,26.7,28.44,WSW,241,0.0,0.0,37,0.00,,---,0.00,VWS V15.00,2017-03-25 10:35:00,
2017-03-25 03:40:00,51.8,26.4,28.44,South,179,0.0,0.0,37,0.00,,---,0.00,VWS V15.00,2017-03-25 10:40:00,
2017-03-25 03:45:00,51.6,26.9,28.44,WSW,250,0.0,0.0,38,0.00,,---,0.00,VWS V15.00,2017-03-25 10:45:00,
2017-03-25 03:50:00,51.4,26.7,28.44,SSW,195,0.0,0.0,38,0.00,,---,0.00,VWS V15.00,2017-03-25 10:50:00,
2017-03-25 03:55:00,51.1,26.4,28.44,WSW,240,0.0,0.0,38,0.00,,---,0.00,VWS V15.00,2017-03-25 10:55:00,
2017-03-25 04:00:00,51.1,26.4,28.44,SSE,165,0.0,0.0,38,0.00,,---,0.00,VWS V15.00,2017-03-25 11:00:00,
2017-03-25 04:05:00,50.7,26.0,28.44,SSW,212,2.2,3.1,38,0.00,,---,0.00,VWS V15.00,2017-03-25 11:05:00,
2017-03-25 04:10:00,50.5,25.9,28.44,SE,127,0.0,2.7,38,0.00,,---,0.00,VWS V15.00,2017-03-25 11:10:00,
2017-03-25 04:15:00,50.4,25.7,28.44,SE,136,0.0,0.0,38,0.00,,---,0.00,VWS V15.00,2017-03-25 11:15:00,
2017-03-25 04:20:00,50.0,25.4,28.44,SE,136,0.0,0.0,38,0.00,,---,0.00,VWS V15.00,2017-03-25 11:20:00,
2017-03-25 04:25:00,49.8,25.9,28.44,SE,141,0.0,0.0,39,0.00,,---,0.00,VWS V15.00,2017-03-25 11:25:00,
2017-03-25 04:30:00,49.6,25.7,28.44,SE,141,0.0,0.0,39,0.00,,---,0.00,VWS V15.00,2017-03-25 11:30:00,
2017-03-25 04:35:00,49.3,25.4,28.44,SE,141,0.0,0.0,39,0.00,,---,0.00,VWS V15.00,2017-03-25 11:35:00,
2017-03-25 04:40:00,49.3,26.0,28.44,SE,141,0.0,0.0,40,0.00,,---,0.00,VWS V15.00,2017-03-25 11:40:00,
2017-03-25 04:45:00,49.3,26.0,28.44,SE,141,0.0,0.0,40,0.00,,---,0.00,VWS V15.00,2017-03-25 11:45:00,
2017-03-25 04:50:00,49.1,25.8,28.44,SE,141,0.0,0.0,40,0.00,,---,0.00,VWS V15.00,2017-03-25 11:50:00,
2017-03-25 04:56:00,49.1,25.8,28.44,SE,141,0.0,0.0,40,0.00,,---,0.00,VWS V15.00,2017-03-25 11:56:00,
2017-03-25 05:01:00,49.1,26.4,28.44,SE,141,0.0,0.0,41,0.00,,---,0.00,VWS V15.00,2017-03-25 12:01:00,
2017-03-25 05:06:00,49.1,26.4,28.44,SE,141,0.0,0.0,41,0.00,,---,0.00,VWS V15.00,2017-03-25 12:06:00,
2017-03-25 05:11:00,49.1,26.4,28.44,West,275,0.0,0.0,41,0.00,,---,0.00,VWS V15.00,2017-03-25 12:11:00,
2017-03-25 05:16:00,49.1,27.0,28.44,NW,314,0.0,0.0,42,0.00,,---,0.00,VWS V15.00,2017-03-25 12:16:00,
2017-03-25 05:21:00,49.1,27.0,28.47,WNW,283,0.0,0.0,42,0.00,,---,0.00,VWS V15.00,2017-03-25 12:21:00,
2017-03-25 05:26:00,49.5,27.3,28.47,West,267,0.0,0.0,42,0.00,,---,0.00,VWS V15.00,2017-03-25 12:26:00,
2017-03-25 05:31:00,49.5,27.3,28.47,West,264,0.0,0.0,42,0.00,,---,0.00,VWS V15.00,2017-03-25 12:31:00,
2017-03-25 05:36:00,49.3,27.2,28.47,NE,38,0.0,0.0,42,0.00,,---,0.00,VWS V15.00,2017-03-25 12:36:00,